createdAt,value
2018-11-04T00:01:06.074Z,63.13
2018-11-04T00:03:36.890Z,66.57
2018-11-04T00:06:05.413Z,65.00
2018-11-04T00:08:33.741Z,66.60
2018-11-04T00:11:02.158Z,68.77
2018-11-04T00:13:30.568Z,58.77
2018-11-04T00:15:58.772Z,72.67
2018-11-04T00:18:27.429Z,65.33
2018-11-04T00:20:55.664Z,72.07
2018-11-04T00:23:23.893Z,64.97
2018-11-04T00:25:52.384Z,69.40
2018-11-04T00:28:20.826Z,66.63
2018-11-04T00:30:49.155Z,64.80
2018-11-04T00:33:17.471Z,64.80
2018-11-04T00:35:45.919Z,68.03
2018-11-04T00:38:14.488Z,69.43
2018-11-04T00:40:42.889Z,70.63
2018-11-04T00:43:11.149Z,71.60
2018-11-04T00:45:39.561Z,64.77
2018-11-04T00:48:07.830Z,79.37
2018-11-04T00:50:36.191Z,65.07
2018-11-04T00:53:04.971Z,74.33
2018-11-04T00:55:33.565Z,70.67
2018-11-04T00:58:02.029Z,72.80
2018-11-04T01:00:30.402Z,68.23
2018-11-04T01:02:58.872Z,75.17
2018-11-04T01:05:29.236Z,68.73
2018-11-04T01:07:57.568Z,69.93
2018-11-04T01:10:25.997Z,73.33
2018-11-04T01:12:54.252Z,73.37
2018-11-04T01:15:22.636Z,77.07
2018-11-04T01:17:51.004Z,74.47
2018-11-04T01:20:19.286Z,76.90
2018-11-04T01:22:47.657Z,85.50
2018-11-04T01:25:16.147Z,78.10
2018-11-04T01:27:44.420Z,75.83
2018-11-04T01:30:14.268Z,75.10
2018-11-04T01:32:42.898Z,76.77
2018-11-04T01:35:11.249Z,76.10
2018-11-04T01:37:39.560Z,72.10
2018-11-04T01:40:09.298Z,71.93
2018-11-04T01:42:38.180Z,73.50
2018-11-04T01:45:08.401Z,74.10
2018-11-04T01:47:36.800Z,68.17
2018-11-04T01:50:07.615Z,66.40
2018-11-04T01:52:35.959Z,70.47
2018-11-04T01:55:05.206Z,73.27
2018-11-04T01:57:33.571Z,71.53
2018-11-04T02:00:01.987Z,67.43
2018-11-04T02:02:30.597Z,75.67
2018-11-04T02:04:58.845Z,67.97
2018-11-04T02:07:40.606Z,74.10
2018-11-04T02:10:11.078Z,79.93
2018-11-04T02:12:39.730Z,75.90
2018-11-04T02:15:10.346Z,72.40
2018-11-04T02:17:38.865Z,70.00
2018-11-04T02:20:09.434Z,64.93
2018-11-04T02:22:38.008Z,80.27
2018-11-04T02:25:07.303Z,78.70
2018-11-04T02:27:35.670Z,78.07
2018-11-04T02:30:05.066Z,76.13
2018-11-04T02:32:33.355Z,73.07
2018-11-04T02:35:01.768Z,71.90
2018-11-04T02:37:30.045Z,77.43
2018-11-04T02:39:58.492Z,68.83
2018-11-04T02:42:26.885Z,70.63
2018-11-04T02:44:55.159Z,76.90
2018-11-04T02:47:23.408Z,67.10
2018-11-04T02:49:51.859Z,70.77
2018-11-04T02:52:20.191Z,69.60
2018-11-04T02:54:48.673Z,67.50
2018-11-04T02:57:17.241Z,70.17
2018-11-04T02:59:45.508Z,66.93
2018-11-04T03:02:13.878Z,67.37
2018-11-04T03:04:42.361Z,63.93
2018-11-04T03:07:10.615Z,62.07
2018-11-04T03:09:38.887Z,64.00
2018-11-04T03:12:07.448Z,59.07
2018-11-04T03:14:35.792Z,63.70
2018-11-04T03:17:04.191Z,64.73
2018-11-04T03:19:32.690Z,60.57
2018-11-04T03:22:01.138Z,64.27
2018-11-04T03:24:29.813Z,61.57
2018-11-04T03:26:58.011Z,55.80
2018-11-04T03:29:26.427Z,62.40
2018-11-04T03:31:54.695Z,57.07
2018-11-04T03:34:23.854Z,54.60
2018-11-04T03:36:52.243Z,63.40
2018-11-04T03:39:20.577Z,61.73
2018-11-04T03:41:49.016Z,61.57
2018-11-04T03:44:17.272Z,55.73
2018-11-04T03:46:45.703Z,59.17
2018-11-04T03:49:13.980Z,61.50
2018-11-04T03:51:42.249Z,62.80
2018-11-04T03:54:10.608Z,62.27
2018-11-04T03:56:38.935Z,60.00
2018-11-04T03:59:07.624Z,62.10
2018-11-04T04:01:36.075Z,58.57
2018-11-04T04:04:04.410Z,61.50
2018-11-04T04:06:32.761Z,70.50
2018-11-04T04:09:01.275Z,55.63
2018-11-04T04:11:29.744Z,58.47
2018-11-04T04:13:58.088Z,58.53
2018-11-04T04:16:26.404Z,57.23
2018-11-04T04:18:54.858Z,61.70
2018-11-04T04:21:24.207Z,54.97
2018-11-04T04:23:52.540Z,49.30
2018-11-04T04:26:20.792Z,57.77
2018-11-04T04:28:49.316Z,56.30
2018-11-04T04:31:17.578Z,49.40
2018-11-04T04:33:45.839Z,50.97
2018-11-04T04:36:14.263Z,51.43
2018-11-04T04:38:42.537Z,55.80
2018-11-04T04:41:10.773Z,59.67
2018-11-04T04:43:41.142Z,55.47
2018-11-04T04:46:09.479Z,56.13
2018-11-04T04:48:37.826Z,61.07
2018-11-04T04:51:06.315Z,53.47
2018-11-04T04:53:34.656Z,62.33
2018-11-04T04:56:03.556Z,56.27
2018-11-04T04:58:31.827Z,64.80
2018-11-04T05:01:00.281Z,68.57
2018-11-04T05:03:28.783Z,59.07
2018-11-04T05:05:57.120Z,58.57
2018-11-04T05:08:25.400Z,55.40
2018-11-04T05:10:53.876Z,57.80
2018-11-04T05:13:22.132Z,68.50
2018-11-04T05:15:51.221Z,62.30
2018-11-04T05:18:19.709Z,67.17
2018-11-04T05:20:48.024Z,64.90
2018-11-04T05:23:16.365Z,64.97
2018-11-04T05:25:44.839Z,64.73
2018-11-04T05:28:13.184Z,63.53
2018-11-04T05:30:41.464Z,59.47
2018-11-04T05:33:09.916Z,64.43
2018-11-04T05:35:39.121Z,61.83
2018-11-04T05:38:07.456Z,68.23
2018-11-04T05:40:35.906Z,54.47
2018-11-04T05:43:04.451Z,58.00
2018-11-04T05:45:32.752Z,57.27
2018-11-04T05:48:01.178Z,61.90
2018-11-04T05:50:29.458Z,59.17
2018-11-04T05:52:57.934Z,64.00
2018-11-04T05:55:26.304Z,60.50
2018-11-04T05:57:54.610Z,57.30
2018-11-04T06:00:23.083Z,56.90
2018-11-04T06:02:52.449Z,56.53
2018-11-04T06:05:20.745Z,60.80
2018-11-04T06:07:48.999Z,64.10
2018-11-04T06:10:17.380Z,55.73
2018-11-04T06:12:45.698Z,60.70
2018-11-04T06:15:13.986Z,60.53
2018-11-04T06:17:42.760Z,53.67
2018-11-04T06:20:12.281Z,59.77
2018-11-04T06:22:41.891Z,49.97
2018-11-04T06:25:10.195Z,53.10
2018-11-04T06:27:38.641Z,57.43
2018-11-04T06:30:10.132Z,58.10
2018-11-04T06:32:38.431Z,57.13
2018-11-04T06:35:07.737Z,53.90
2018-11-04T06:37:36.497Z,60.40
2018-11-04T06:40:06.362Z,59.57
2018-11-04T06:42:34.814Z,54.27
2018-11-04T06:45:03.380Z,56.97
2018-11-04T06:47:31.763Z,55.40
2018-11-04T06:50:01.251Z,58.47
2018-11-04T06:52:32.139Z,63.37
2018-11-04T06:55:00.699Z,63.10
2018-11-04T06:57:29.131Z,56.17
2018-11-04T06:59:57.785Z,57.00
2018-11-04T07:02:26.173Z,58.77
2018-11-04T07:04:54.705Z,67.23
2018-11-04T07:07:23.395Z,59.00
2018-11-04T07:09:51.752Z,61.80
2018-11-04T07:12:20.254Z,62.43
2018-11-04T07:14:48.772Z,63.63
2018-11-04T07:17:17.081Z,59.90
2018-11-04T07:19:46.634Z,63.23
2018-11-04T07:22:15.554Z,63.17
2018-11-04T07:24:44.948Z,68.90
2018-11-04T07:27:13.413Z,71.23
2018-11-04T07:29:41.822Z,69.80
2018-11-04T07:32:10.627Z,64.80
2018-11-04T07:34:40.253Z,60.57
2018-11-04T07:37:09.526Z,62.13
2018-11-04T07:39:37.920Z,62.20
2018-11-04T07:42:06.426Z,63.83
2018-11-04T07:44:37.067Z,65.43
2018-11-04T07:47:07.983Z,58.70
2018-11-04T07:49:36.383Z,63.50
2018-11-04T07:52:06.315Z,69.30
2018-11-04T07:54:34.905Z,66.77
2018-11-04T07:57:03.462Z,64.87
2018-11-04T07:59:31.794Z,66.03
2018-11-04T08:02:01.061Z,60.60
2018-11-04T08:04:29.424Z,63.80
2018-11-04T08:06:58.590Z,60.83
2018-11-04T08:09:27.076Z,69.20
2018-11-04T08:11:55.533Z,58.23
2018-11-04T08:14:24.038Z,60.77
2018-11-04T08:16:52.459Z,63.07
2018-11-04T08:19:20.816Z,62.50
2018-11-04T08:21:49.319Z,69.07
2018-11-04T08:24:17.646Z,61.67
2018-11-04T08:26:48.062Z,59.33
2018-11-04T08:29:16.394Z,61.17
2018-11-04T08:31:45.092Z,66.67
2018-11-04T08:34:13.692Z,63.43
2018-11-04T08:36:42.287Z,62.20
2018-11-04T08:39:10.963Z,60.20
2018-11-04T08:41:39.340Z,64.63
2018-11-04T08:44:07.905Z,63.67
2018-11-04T08:46:36.275Z,61.40
2018-11-04T08:49:04.980Z,60.10
2018-11-04T08:51:33.694Z,69.23
2018-11-04T08:54:01.996Z,62.80
2018-11-04T08:56:30.327Z,62.03
2018-11-04T08:58:58.763Z,57.63
2018-11-04T09:01:27.047Z,62.83
2018-11-04T09:03:55.820Z,56.57
2018-11-04T09:06:24.313Z,61.27
2018-11-04T09:08:52.678Z,64.10
2018-11-04T09:11:20.938Z,60.67
2018-11-04T09:13:49.377Z,59.73
2018-11-04T09:16:17.677Z,50.87
2018-11-04T09:18:46.032Z,51.83
2018-11-04T09:21:14.749Z,52.70
2018-11-04T09:23:43.098Z,53.27
2018-11-04T09:26:11.320Z,51.70
2018-11-04T09:28:39.974Z,48.90
2018-11-04T09:31:08.760Z,46.60
2018-11-04T09:33:37.083Z,44.40
2018-11-04T09:36:05.546Z,46.73
2018-11-04T09:38:33.883Z,43.57
2018-11-04T09:41:02.207Z,43.87
2018-11-04T09:43:30.553Z,41.63
2018-11-04T09:45:59.296Z,41.67
2018-11-04T09:48:27.552Z,42.23
2018-11-04T09:50:55.940Z,43.03
2018-11-04T09:53:24.262Z,40.10
2018-11-04T09:55:52.535Z,37.33
2018-11-04T09:58:20.791Z,40.90
2018-11-04T10:00:49.190Z,40.90
2018-11-04T10:03:17.507Z,37.57
2018-11-04T10:05:45.806Z,40.50
2018-11-04T10:08:14.534Z,37.90
2018-11-04T10:10:43.003Z,36.40
2018-11-04T10:13:11.370Z,34.97
2018-11-04T10:15:39.827Z,38.13
2018-11-04T10:18:08.074Z,35.23
2018-11-04T10:20:36.644Z,34.67
2018-11-04T10:23:05.392Z,35.90
2018-11-04T10:25:33.748Z,34.43
2018-11-04T10:28:02.111Z,35.53
2018-11-04T10:30:30.396Z,34.73
2018-11-04T10:32:58.562Z,33.10
2018-11-04T10:35:26.916Z,33.67
2018-11-04T10:37:55.247Z,32.53
2018-11-04T10:40:23.578Z,34.67
2018-11-04T10:42:52.088Z,31.70
2018-11-04T10:45:20.509Z,34.43
2018-11-04T10:47:48.809Z,34.80
2018-11-04T10:50:17.317Z,30.30
2018-11-04T10:52:45.819Z,32.00
2018-11-04T10:55:14.186Z,33.00
2018-11-04T10:57:42.664Z,31.50
2018-11-04T11:00:16.969Z,31.30
2018-11-04T11:02:45.530Z,32.40
2018-11-04T11:05:14.220Z,33.83
2018-11-04T11:07:42.748Z,33.97
2018-11-04T11:10:11.149Z,32.77
2018-11-04T11:12:39.664Z,30.07
2018-11-04T11:15:09.201Z,31.10
2018-11-04T11:17:37.537Z,31.50
2018-11-04T11:20:07.824Z,28.87
2018-11-04T11:22:36.950Z,29.00
2018-11-04T11:25:06.071Z,32.10
2018-11-04T11:27:34.379Z,30.97
2018-11-04T11:30:02.925Z,29.27
2018-11-04T11:32:31.464Z,30.43
2018-11-04T11:34:59.849Z,29.20
2018-11-04T11:37:28.194Z,29.13
2018-11-04T11:39:56.723Z,28.53
2018-11-04T11:42:25.213Z,30.53
2018-11-04T11:44:53.658Z,29.37
2018-11-04T11:47:22.080Z,30.80
2018-11-04T11:49:50.431Z,29.97
2018-11-04T11:52:18.992Z,28.90
2018-11-04T11:54:47.332Z,29.87
2018-11-04T11:57:15.691Z,29.10
2018-11-04T11:59:44.755Z,28.93
2018-11-04T12:02:13.256Z,29.17
2018-11-04T12:04:42.054Z,28.93
2018-11-04T12:07:10.554Z,29.27
2018-11-04T12:09:38.868Z,28.70
2018-11-04T12:12:07.302Z,29.10
2018-11-04T12:14:35.592Z,28.70
2018-11-04T12:17:03.886Z,29.57
2018-11-04T12:19:32.303Z,29.63
2018-11-04T12:22:00.743Z,29.60
2018-11-04T12:24:29.106Z,31.00
2018-11-04T12:26:57.624Z,28.77
2018-11-04T12:29:26.109Z,28.17
2018-11-04T12:31:54.411Z,30.33
2018-11-04T12:34:22.783Z,28.47
2018-11-04T12:36:51.233Z,29.00
2018-11-04T12:39:19.490Z,29.50
2018-11-04T12:41:47.844Z,28.07
2018-11-04T12:44:16.099Z,29.17
2018-11-04T12:46:44.521Z,29.70
2018-11-04T12:49:12.816Z,29.30
2018-11-04T12:51:41.196Z,29.20
2018-11-04T12:54:09.549Z,29.97
2018-11-04T12:56:37.892Z,29.17
2018-11-04T12:59:06.311Z,27.43
2018-11-04T13:01:34.543Z,28.37
2018-11-04T13:04:02.885Z,27.87
2018-11-04T13:06:34.182Z,29.43
2018-11-04T13:09:03.170Z,28.27
2018-11-04T13:11:31.526Z,30.40
2018-11-04T13:13:59.923Z,29.47
2018-11-04T13:16:28.535Z,28.83
2018-11-04T13:18:57.199Z,29.53
2018-11-04T13:21:25.693Z,29.97
2018-11-04T13:23:53.951Z,30.23
2018-11-04T13:26:22.230Z,30.07
2018-11-04T13:28:50.725Z,31.10
2018-11-04T13:31:19.131Z,30.53
2018-11-04T13:33:47.625Z,29.50
2018-11-04T13:36:16.069Z,30.90
2018-11-04T13:38:44.447Z,30.10
2018-11-04T13:41:13.003Z,29.20
2018-11-04T13:43:41.652Z,28.97
2018-11-04T13:46:10.614Z,27.83
2018-11-04T13:48:38.984Z,26.63
2018-11-04T13:51:07.536Z,29.63
2018-11-04T13:53:35.931Z,29.67
2018-11-04T13:56:04.474Z,29.90
2018-11-04T13:58:32.987Z,28.33
2018-11-04T14:01:01.527Z,27.43
2018-11-04T14:03:30.039Z,28.37
2018-11-04T14:05:58.572Z,28.70
2018-11-04T14:08:28.083Z,30.20
2018-11-04T14:10:56.526Z,28.80
2018-11-04T14:13:25.203Z,27.97
2018-11-04T14:15:53.963Z,28.30
2018-11-04T14:18:22.417Z,27.37
2018-11-04T14:20:51.186Z,26.67
2018-11-04T14:23:19.831Z,28.77
2018-11-04T14:25:48.373Z,27.37
2018-11-04T14:28:16.931Z,28.17
2018-11-04T14:30:45.431Z,27.10
2018-11-04T14:33:13.927Z,27.50
2018-11-04T14:35:42.810Z,27.33
2018-11-04T14:38:11.919Z,26.70
2018-11-04T14:40:40.501Z,26.27
2018-11-04T14:43:09.065Z,27.17
2018-11-04T14:45:37.739Z,28.43
2018-11-04T14:48:06.326Z,27.30
2018-11-04T14:50:34.767Z,28.43
2018-11-04T14:53:03.659Z,29.33
2018-11-04T14:55:32.198Z,26.67
2018-11-04T14:58:00.690Z,27.73
2018-11-04T15:00:33.752Z,25.73
2018-11-04T15:03:02.974Z,25.73
2018-11-04T15:05:31.685Z,26.90
2018-11-04T15:08:00.347Z,27.70
2018-11-04T15:10:29.758Z,28.60
2018-11-04T15:12:58.349Z,31.27
2018-11-04T15:15:27.049Z,30.80
2018-11-04T15:17:55.630Z,31.37
2018-11-04T15:20:24.099Z,30.03
2018-11-04T15:22:52.700Z,30.90
2018-11-04T15:25:22.254Z,30.50
2018-11-04T15:27:50.913Z,31.30
2018-11-04T15:32:53.942Z,31.27
2018-11-04T15:35:22.550Z,39.37
2018-11-04T15:37:51.716Z,29.57
2018-11-04T15:40:20.649Z,27.93
2018-11-04T15:42:49.211Z,27.63
2018-11-04T15:45:17.867Z,27.37
2018-11-04T15:47:46.481Z,28.93
2018-11-04T15:50:16.623Z,35.53
2018-11-04T15:52:46.357Z,30.53
2018-11-04T15:55:15.134Z,33.00
2018-11-04T15:57:43.741Z,31.70
2018-11-04T16:00:14.071Z,30.17
2018-11-04T16:02:42.523Z,29.83
2018-11-04T16:05:11.322Z,30.17
2018-11-04T16:07:39.897Z,32.27
2018-11-04T16:10:10.176Z,31.60
2018-11-04T16:12:39.379Z,31.23
2018-11-04T16:15:14.609Z,29.83
2018-11-04T16:17:43.757Z,30.80
2018-11-04T16:20:13.978Z,37.03
2018-11-04T16:22:43.197Z,34.23
2018-11-04T16:25:12.323Z,35.13
2018-11-04T16:27:41.546Z,30.83
2018-11-04T16:30:12.048Z,35.70
2018-11-04T16:32:40.496Z,31.23
2018-11-04T16:35:10.530Z,33.70
2018-11-04T16:37:39.789Z,33.63
2018-11-04T16:40:08.614Z,33.00
2018-11-04T16:42:37.634Z,37.30
2018-11-04T16:45:09.893Z,34.70
2018-11-04T16:47:38.872Z,38.63
2018-11-04T16:50:08.565Z,35.93
2018-11-04T16:52:37.149Z,35.57
2018-11-04T16:55:07.309Z,35.77
2018-11-04T16:57:35.653Z,33.07
2018-11-04T17:00:05.546Z,39.97
2018-11-04T17:02:33.985Z,34.57
2018-11-04T17:05:02.573Z,38.50
2018-11-04T17:07:31.199Z,32.30
2018-11-04T17:09:59.792Z,34.47
2018-11-04T17:12:29.426Z,38.50
2018-11-04T17:14:57.930Z,39.47
2018-11-04T17:17:26.349Z,43.10
2018-11-04T17:19:54.741Z,42.30
2018-11-04T17:22:23.291Z,40.57
2018-11-04T17:24:51.735Z,43.33
2018-11-04T17:27:20.174Z,42.87
2018-11-04T17:29:48.698Z,53.23
2018-11-04T17:32:18.035Z,45.70
2018-11-04T17:34:46.500Z,44.17
2018-11-04T17:37:16.316Z,47.97
2018-11-04T17:39:44.838Z,51.77
2018-11-04T17:42:13.302Z,44.10
2018-11-04T17:44:41.949Z,46.50
2018-11-04T17:47:10.334Z,53.37
2018-11-04T17:49:38.773Z,58.57
2018-11-04T17:52:07.260Z,69.57
2018-11-04T17:54:35.536Z,65.40
2018-11-04T17:57:04.063Z,61.43
2018-11-04T17:59:32.449Z,57.10
2018-11-04T18:02:00.918Z,56.47
2018-11-04T18:04:29.476Z,52.93
2018-11-04T18:06:57.875Z,62.60
2018-11-04T18:09:26.395Z,59.57
2018-11-04T18:11:54.942Z,50.30
2018-11-04T18:14:24.621Z,54.53
2018-11-04T18:16:52.928Z,55.70
2018-11-04T18:19:21.378Z,48.23
2018-11-04T18:21:49.674Z,48.00
2018-11-04T18:24:18.042Z,53.90
2018-11-04T18:26:46.735Z,53.17
2018-11-04T18:29:15.167Z,58.27
2018-11-04T18:31:43.514Z,59.50
2018-11-04T18:34:12.576Z,61.10
2018-11-04T18:36:41.099Z,61.67
2018-11-04T18:39:10.042Z,59.80
2018-11-04T18:41:38.716Z,59.30
2018-11-04T18:44:07.931Z,65.20
2018-11-04T18:46:36.749Z,70.17
2018-11-04T18:49:06.300Z,69.97
2018-11-04T18:51:34.831Z,77.13
2018-11-04T18:54:04.364Z,86.47
2018-11-04T18:56:32.890Z,73.07
2018-11-04T18:59:01.935Z,72.20
2018-11-04T19:01:30.254Z,77.37
2018-11-04T19:03:58.816Z,74.80
2018-11-04T19:06:27.498Z,86.43
2018-11-04T19:08:55.949Z,93.10
2018-11-04T19:11:24.604Z,79.90
2018-11-04T19:13:52.879Z,80.60
2018-11-04T19:16:21.200Z,80.30
2018-11-04T19:18:49.849Z,79.07
2018-11-04T19:21:18.236Z,88.17
2018-11-04T19:23:48.497Z,86.40
2018-11-04T19:26:16.980Z,87.00
2018-11-04T19:28:45.973Z,78.80
2018-11-04T19:31:14.671Z,80.07
2018-11-04T19:33:42.930Z,79.80
2018-11-04T19:36:11.220Z,83.50
2018-11-04T19:38:39.607Z,84.17
2018-11-04T19:41:07.891Z,81.87
2018-11-04T19:43:36.295Z,86.57
2018-11-04T19:46:04.751Z,92.83
2018-11-04T19:48:33.145Z,91.83
2018-11-04T19:51:01.564Z,105.27
2018-11-04T19:53:29.989Z,107.60
2018-11-04T19:55:59.065Z,97.30
2018-11-04T19:58:27.387Z,103.17
2018-11-04T20:00:55.848Z,112.07
2018-11-04T20:03:24.189Z,111.03
2018-11-04T20:05:52.675Z,110.53
2018-11-04T20:08:21.485Z,106.47
2018-11-04T20:10:49.766Z,95.33
2018-11-04T20:13:23.846Z,108.67
2018-11-04T20:15:52.423Z,113.33
2018-11-04T20:18:26.498Z,113.97
2018-11-04T20:20:54.808Z,110.10
2018-11-04T20:23:23.088Z,129.33
2018-11-04T20:25:57.784Z,121.50
2018-11-04T20:28:26.280Z,110.53
2018-11-04T20:30:54.708Z,133.03
2018-11-04T20:33:23.312Z,123.00
2018-11-04T20:35:51.814Z,140.83
2018-11-04T20:38:24.991Z,154.27
2018-11-04T20:40:58.998Z,122.53
2018-11-04T20:43:27.644Z,119.67
2018-11-04T20:45:55.998Z,127.83
2018-11-04T20:48:30.113Z,120.63
2018-11-04T20:51:02.631Z,133.73
2018-11-04T20:53:31.137Z,142.57
2018-11-04T20:56:05.159Z,148.17
2018-11-04T20:58:33.675Z,150.63
2018-11-04T21:01:02.098Z,146.43
2018-11-04T21:03:30.448Z,156.00
2018-11-04T21:05:59.156Z,148.00
2018-11-04T21:08:29.515Z,132.83
2018-11-04T21:10:57.818Z,140.27
2018-11-04T21:13:26.589Z,150.93
2018-11-04T21:15:55.054Z,160.23
2018-11-04T21:18:23.594Z,131.83
2018-11-04T21:20:52.244Z,160.33
2018-11-04T21:23:20.604Z,150.40
2018-11-04T21:25:49.048Z,146.00
2018-11-04T21:28:20.933Z,159.20
2018-11-04T21:30:49.295Z,159.70
2018-11-04T21:33:17.681Z,174.10
2018-11-04T21:35:46.148Z,157.27
2018-11-04T21:38:15.411Z,129.77
2018-11-04T21:40:43.817Z,139.63
2018-11-04T21:43:12.174Z,154.30
2018-11-04T21:45:41.406Z,163.50
2018-11-04T21:48:09.968Z,175.00
2018-11-04T21:50:38.345Z,153.23
2018-11-04T21:53:06.840Z,154.90
2018-11-04T21:55:35.355Z,163.50
2018-11-04T21:58:06.844Z,162.40
2018-11-04T22:00:35.135Z,159.73
2018-11-04T22:03:03.534Z,158.90
2018-11-04T22:05:31.961Z,164.13
2018-11-04T22:08:00.303Z,163.77
2018-11-04T22:10:28.771Z,176.00
2018-11-04T22:12:57.116Z,183.40
2018-11-04T22:15:25.394Z,201.53
2018-11-04T22:17:53.960Z,175.37
2018-11-04T22:20:22.256Z,184.60
2018-11-04T22:22:50.531Z,194.53
2018-11-04T22:25:18.895Z,179.77
2018-11-04T22:27:47.315Z,193.20
2018-11-04T22:30:15.742Z,178.07
2018-11-04T22:32:44.251Z,160.00
2018-11-04T22:35:12.676Z,157.07
2018-11-04T22:37:41.088Z,145.77
2018-11-04T22:40:11.074Z,125.23
2018-11-04T22:42:40.266Z,126.40
2018-11-04T22:45:10.000Z,124.10
2018-11-04T22:47:38.743Z,123.30
2018-11-04T22:50:11.426Z,117.53
2018-11-04T22:52:40.443Z,107.40
2018-11-04T22:55:09.175Z,97.87
2018-11-04T22:57:37.571Z,89.17
2018-11-04T23:00:13.346Z,106.77
2018-11-04T23:02:41.844Z,110.43
2018-11-04T23:05:15.822Z,113.60
2018-11-04T23:07:44.802Z,99.33
2018-11-04T23:10:13.392Z,117.90
2018-11-04T23:12:41.788Z,123.13
2018-11-04T23:15:10.184Z,102.13
2018-11-04T23:17:38.613Z,116.07
2018-11-04T23:20:07.855Z,117.07
2018-11-04T23:22:36.618Z,107.67
2018-11-04T23:25:06.685Z,113.07
2018-11-04T23:27:34.944Z,124.77
2018-11-04T23:30:04.603Z,114.33
2018-11-04T23:32:36.425Z,117.57
2018-11-04T23:35:05.372Z,103.50
2018-11-04T23:37:33.762Z,102.30
2018-11-04T23:40:02.187Z,103.63
2018-11-04T23:42:31.383Z,114.33
2018-11-04T23:45:00.558Z,114.93
2018-11-04T23:47:29.267Z,110.53
2018-11-04T23:49:57.882Z,108.60
2018-11-04T23:52:26.548Z,105.70
2018-11-04T23:54:55.082Z,104.73
2018-11-04T23:57:23.814Z,109.57
2018-11-04T23:59:52.579Z,98.23
